createdAt,value
2018-02-07T00:01:15.808Z,66.90
2018-02-07T00:03:43.531Z,66.90
2018-02-07T00:06:12.016Z,67.00
2018-02-07T00:08:40.399Z,67.10
2018-02-07T00:11:08.815Z,67.00
2018-02-07T00:13:36.535Z,67.00
2018-02-07T00:16:05.015Z,67.30
2018-02-07T00:18:33.420Z,67.40
2018-02-07T00:21:01.044Z,67.40
2018-02-07T00:23:28.675Z,67.50
2018-02-07T00:25:56.392Z,67.90
2018-02-07T00:28:24.807Z,68.60
2018-02-07T00:30:52.410Z,68.50
2018-02-07T00:33:20.095Z,69.60
2018-02-07T00:35:48.472Z,69.20
2018-02-07T00:38:16.960Z,69.60
2018-02-07T00:40:45.430Z,69.70
2018-02-07T00:43:13.915Z,70.80
2018-02-07T00:45:42.295Z,70.20
2018-02-07T00:48:10.702Z,70.30
2018-02-07T00:50:38.318Z,70.30
2018-02-07T00:53:07.534Z,70.30
2018-02-07T00:55:35.916Z,70.00
2018-02-07T00:58:04.316Z,69.80
2018-02-07T01:00:31.936Z,69.60
2018-02-07T01:02:59.542Z,69.50
2018-02-07T01:05:27.180Z,69.50
2018-02-07T01:07:55.560Z,69.50
2018-02-07T01:10:24.049Z,69.40
2018-02-07T01:12:52.527Z,69.10
2018-02-07T01:15:20.922Z,68.90
2018-02-07T01:17:48.548Z,68.80
2018-02-07T01:20:16.236Z,68.80
2018-02-07T01:22:44.611Z,68.60
2018-02-07T01:25:13.011Z,68.60
2018-02-07T01:27:40.619Z,68.60
2018-02-07T01:30:08.257Z,68.70
2018-02-07T01:32:35.867Z,68.80
2018-02-07T01:35:04.275Z,69.40
2018-02-07T01:37:31.892Z,68.80
2018-02-07T01:39:59.583Z,68.80
2018-02-07T01:42:28.039Z,68.60
2018-02-07T01:44:55.735Z,68.60
2018-02-07T01:47:23.395Z,68.50
2018-02-07T01:49:51.767Z,68.60
2018-02-07T01:52:20.250Z,69.50
2018-02-07T01:54:48.623Z,69.10
2018-02-07T01:57:16.252Z,68.80
2018-02-07T01:59:43.867Z,69.20
2018-02-07T02:02:11.507Z,69.20
2018-02-07T02:04:39.160Z,69.50
2018-02-07T02:07:06.788Z,70.40
2018-02-07T02:09:34.400Z,69.80
2018-02-07T02:12:02.813Z,70.30
2018-02-07T02:14:30.432Z,70.30
2018-02-07T02:16:58.068Z,70.40
2018-02-07T02:19:25.774Z,71.40
2018-02-07T02:21:54.171Z,70.30
2018-02-07T02:24:21.820Z,70.20
2018-02-07T02:26:50.219Z,70.10
2018-02-07T02:29:17.863Z,70.10
2018-02-07T02:31:46.443Z,70.10
2018-02-07T02:34:14.815Z,70.00
2018-02-07T02:36:43.199Z,70.00
2018-02-07T02:39:11.599Z,70.00
2018-02-07T02:41:39.251Z,70.00
2018-02-07T02:44:07.655Z,70.00
2018-02-07T02:46:35.255Z,70.00
2018-02-07T02:49:02.946Z,70.10
2018-02-07T02:51:31.324Z,70.10
2018-02-07T02:53:59.812Z,70.40
2018-02-07T02:56:28.183Z,70.30
2018-02-07T02:58:56.675Z,70.30
2018-02-07T03:01:25.933Z,70.10
2018-02-07T03:03:53.639Z,70.10
2018-02-07T03:06:22.053Z,70.10
2018-02-07T03:08:49.695Z,70.00
2018-02-07T03:11:17.319Z,70.10
2018-02-07T03:13:45.007Z,70.10
2018-02-07T03:16:13.486Z,70.10
2018-02-07T03:18:41.885Z,70.00
2018-02-07T03:21:09.499Z,69.90
2018-02-07T03:23:37.130Z,69.80
2018-02-07T03:26:04.734Z,69.70
2018-02-07T03:28:32.424Z,69.70
2018-02-07T03:31:00.811Z,69.50
2018-02-07T03:33:28.466Z,69.50
2018-02-07T03:35:56.948Z,69.50
2018-02-07T03:38:25.323Z,69.50
2018-02-07T03:40:53.715Z,69.40
2018-02-07T03:43:21.372Z,69.20
2018-02-07T03:45:49.767Z,69.30
2018-02-07T03:48:17.371Z,69.30
2018-02-07T03:50:45.022Z,69.40
2018-02-07T03:53:12.636Z,69.40
2018-02-07T03:55:41.115Z,69.40
2018-02-07T03:58:09.486Z,69.40
2018-02-07T04:00:37.892Z,69.70
2018-02-07T04:03:05.537Z,69.30
2018-02-07T04:05:33.939Z,69.30
2018-02-07T04:08:01.546Z,69.30
2018-02-07T04:10:29.190Z,69.30
2018-02-07T04:12:56.804Z,69.30
2018-02-07T04:15:25.274Z,69.40
2018-02-07T04:17:53.650Z,69.60
2018-02-07T04:20:22.044Z,69.60
2018-02-07T04:22:50.438Z,69.90
2018-02-07T04:25:18.047Z,69.90
2018-02-07T04:27:45.747Z,70.00
2018-02-07T04:30:14.124Z,70.30
2018-02-07T04:32:42.591Z,70.30
2018-02-07T04:35:10.271Z,70.10
2018-02-07T04:37:38.669Z,70.00
2018-02-07T04:40:06.315Z,70.00
2018-02-07T04:42:34.706Z,69.90
2018-02-07T04:45:03.079Z,69.60
2018-02-07T04:47:31.558Z,69.70
2018-02-07T04:50:00.045Z,69.60
2018-02-07T04:52:27.687Z,69.60
2018-02-07T04:54:55.326Z,69.70
2018-02-07T04:57:22.964Z,69.10
2018-02-07T04:59:50.596Z,69.90
2018-02-07T05:02:18.996Z,70.00
2018-02-07T05:04:46.602Z,70.00
2018-02-07T05:07:14.300Z,70.10
2018-02-07T05:09:42.671Z,70.00
2018-02-07T05:12:11.071Z,70.10
2018-02-07T05:14:38.714Z,70.10
2018-02-07T05:17:07.199Z,69.70
2018-02-07T05:19:35.669Z,69.60
2018-02-07T05:22:03.307Z,69.40
2018-02-07T05:24:31.012Z,69.50
2018-02-07T05:26:59.490Z,69.60
2018-02-07T05:29:27.966Z,69.60
2018-02-07T05:31:56.454Z,69.60
2018-02-07T05:34:24.854Z,69.60
2018-02-07T05:36:52.467Z,69.50
2018-02-07T05:39:21.635Z,69.50
2018-02-07T05:41:49.243Z,69.40
2018-02-07T05:44:17.650Z,70.30
2018-02-07T05:46:45.280Z,69.50
2018-02-07T05:49:12.960Z,69.50
2018-02-07T05:51:41.339Z,69.30
2018-02-07T05:54:09.748Z,69.30
2018-02-07T05:56:37.362Z,69.30
2018-02-07T05:59:05.044Z,69.20
2018-02-07T06:01:33.623Z,69.20
2018-02-07T06:04:02.111Z,69.30
2018-02-07T06:06:30.500Z,69.30
2018-02-07T06:08:58.914Z,69.20
2018-02-07T06:11:26.693Z,69.20
2018-02-07T06:13:54.408Z,69.10
2018-02-07T06:16:22.795Z,69.20
2018-02-07T06:18:50.411Z,69.10
2018-02-07T06:21:18.056Z,69.20
2018-02-07T06:23:45.676Z,69.10
2018-02-07T06:26:13.330Z,69.10
2018-02-07T06:28:41.702Z,69.20
2018-02-07T06:31:10.108Z,69.80
2018-02-07T06:33:37.760Z,69.20
2018-02-07T06:36:06.171Z,69.30
2018-02-07T06:38:33.792Z,69.30
2018-02-07T06:41:02.199Z,69.20
2018-02-07T06:43:29.811Z,69.20
2018-02-07T06:45:57.447Z,69.10
2018-02-07T06:48:25.059Z,69.10
2018-02-07T06:50:53.551Z,69.10
2018-02-07T06:53:22.038Z,69.10
2018-02-07T06:55:49.798Z,69.10
2018-02-07T06:58:18.183Z,69.50
2018-02-07T07:00:45.800Z,69.50
2018-02-07T07:03:13.439Z,69.60
2018-02-07T07:05:41.163Z,69.70
2018-02-07T07:08:09.574Z,69.80
2018-02-07T07:10:37.193Z,69.70
2018-02-07T07:13:05.595Z,69.00
2018-02-07T07:15:33.220Z,69.60
2018-02-07T07:18:02.416Z,69.80
2018-02-07T07:20:30.111Z,69.80
2018-02-07T07:22:58.591Z,70.00
2018-02-07T07:25:26.967Z,70.00
2018-02-07T07:27:55.371Z,70.00
2018-02-07T07:30:22.988Z,70.00
2018-02-07T07:32:50.626Z,70.10
2018-02-07T07:35:18.243Z,70.20
2018-02-07T07:37:46.715Z,70.40
2018-02-07T07:40:15.924Z,70.40
2018-02-07T07:42:44.404Z,70.70
2018-02-07T07:45:12.796Z,70.80
2018-02-07T07:47:40.431Z,70.80
2018-02-07T07:50:08.807Z,71.50
2018-02-07T07:52:36.589Z,70.80
2018-02-07T07:55:05.063Z,70.80
2018-02-07T07:57:33.556Z,71.00
2018-02-07T08:00:02.031Z,71.10
2018-02-07T08:02:30.423Z,71.30
2018-02-07T08:04:58.068Z,71.20
2018-02-07T08:07:26.451Z,71.80
2018-02-07T08:09:54.938Z,71.90
2018-02-07T08:12:23.324Z,72.00
2018-02-07T08:14:50.984Z,71.90
2018-02-07T08:17:19.363Z,72.10
2018-02-07T08:19:47.771Z,72.10
2018-02-07T08:22:15.403Z,72.10
2018-02-07T08:24:43.805Z,72.40
2018-02-07T08:27:11.419Z,72.40
2018-02-07T08:29:39.056Z,72.40
2018-02-07T08:32:06.671Z,72.50
2018-02-07T08:34:35.147Z,72.60
2018-02-07T08:37:03.523Z,72.70
2018-02-07T08:39:31.927Z,72.80
2018-02-07T08:41:59.571Z,72.80
2018-02-07T08:44:27.995Z,72.80
2018-02-07T08:46:55.840Z,72.80
2018-02-07T08:49:23.459Z,72.70
2018-02-07T08:51:51.152Z,72.70
2018-02-07T08:54:19.544Z,72.40
2018-02-07T08:56:47.188Z,72.40
2018-02-07T08:59:15.567Z,72.50
2018-02-07T09:01:43.970Z,72.30
2018-02-07T09:04:11.625Z,72.30
2018-02-07T09:06:39.379Z,72.20
2018-02-07T09:09:07.771Z,72.40
2018-02-07T09:11:35.415Z,72.30
2018-02-07T09:14:03.799Z,72.80
2018-02-07T09:16:32.291Z,72.90
2018-02-07T09:18:59.906Z,72.80
2018-02-07T09:21:27.611Z,73.00
2018-02-07T09:23:56.000Z,73.10
2018-02-07T09:26:23.751Z,73.10
2018-02-07T09:28:52.140Z,73.40
2018-02-07T09:31:19.775Z,73.40
2018-02-07T09:33:47.396Z,73.60
2018-02-07T09:36:15.127Z,74.40
2018-02-07T09:38:42.796Z,73.80
2018-02-07T09:41:10.414Z,74.20
2018-02-07T09:43:38.107Z,74.30
2018-02-07T09:46:06.486Z,74.60
2018-02-07T09:48:34.895Z,74.60
2018-02-07T09:51:02.518Z,74.60
2018-02-07T09:53:30.201Z,74.70
2018-02-07T09:55:57.828Z,74.80
2018-02-07T09:58:25.584Z,74.90
2018-02-07T10:00:53.282Z,74.90
2018-02-07T10:03:21.695Z,74.70
2018-02-07T10:05:49.329Z,74.50
2018-02-07T10:08:17.795Z,74.30
2018-02-07T10:10:45.475Z,74.30
2018-02-07T10:13:13.884Z,73.60
2018-02-07T10:15:41.502Z,73.50
2018-02-07T10:18:09.175Z,73.00
2018-02-07T10:20:37.560Z,72.20
2018-02-07T10:23:06.039Z,72.00
2018-02-07T10:25:34.523Z,71.70
2018-02-07T10:28:02.912Z,71.70
2018-02-07T10:30:30.554Z,71.70
2018-02-07T10:32:59.020Z,71.30
2018-02-07T10:35:26.664Z,71.30
2018-02-07T10:37:54.374Z,70.90
2018-02-07T10:40:22.854Z,70.20
2018-02-07T10:42:51.234Z,70.00
2018-02-07T10:45:19.640Z,69.70
2018-02-07T10:47:47.275Z,69.70
2018-02-07T10:50:16.367Z,68.50
2018-02-07T10:52:44.854Z,67.20
2018-02-07T10:55:13.264Z,66.30
2018-02-07T10:57:40.964Z,66.20
2018-02-07T11:00:08.600Z,66.10
2018-02-07T11:02:36.216Z,65.90
2018-02-07T11:05:04.706Z,64.90
2018-02-07T11:07:33.187Z,64.60
2018-02-07T11:10:01.676Z,64.40
2018-02-07T11:12:30.063Z,64.10
2018-02-07T11:14:57.721Z,64.00
2018-02-07T11:17:25.363Z,63.70
2018-02-07T11:19:52.974Z,63.00
2018-02-07T11:22:20.616Z,62.70
2018-02-07T11:24:48.263Z,62.20
2018-02-07T11:27:16.667Z,61.80
2018-02-07T11:29:44.312Z,61.70
2018-02-07T11:32:11.970Z,61.20
2018-02-07T11:34:40.370Z,60.60
2018-02-07T11:37:08.011Z,60.70
2018-02-07T11:39:35.678Z,60.60
2018-02-07T11:42:04.090Z,60.80
2018-02-07T11:44:31.818Z,60.80
2018-02-07T11:47:00.223Z,61.00
2018-02-07T11:49:27.862Z,61.00
2018-02-07T11:51:56.279Z,61.30
2018-02-07T11:54:23.899Z,61.20
2018-02-07T11:56:52.336Z,61.10
2018-02-07T11:59:20.046Z,61.10
2018-02-07T12:01:48.435Z,60.30
2018-02-07T12:04:16.100Z,60.20
2018-02-07T12:06:43.727Z,60.00
2018-02-07T12:09:11.371Z,59.50
2018-02-07T12:11:38.996Z,59.40
2018-02-07T12:14:06.752Z,59.10
2018-02-07T12:16:34.415Z,59.00
2018-02-07T12:19:02.075Z,58.60
2018-02-07T12:21:29.740Z,58.10
2018-02-07T12:23:57.351Z,57.90
2018-02-07T12:26:24.942Z,58.00
2018-02-07T12:28:52.579Z,58.10
2018-02-07T12:31:20.282Z,58.50
2018-02-07T12:33:47.951Z,58.70
2018-02-07T12:36:15.552Z,58.60
2018-02-07T12:38:43.275Z,59.40
2018-02-07T12:41:11.655Z,58.30
2018-02-07T12:43:39.315Z,58.20
2018-02-07T12:46:06.927Z,58.50
2018-02-07T12:48:34.643Z,58.60
2018-02-07T12:51:02.302Z,58.50
2018-02-07T12:53:29.966Z,58.60
2018-02-07T12:55:58.371Z,58.60
2018-02-07T12:58:26.730Z,58.50
2018-02-07T13:00:55.172Z,58.50
2018-02-07T13:03:22.796Z,58.50
2018-02-07T13:05:50.436Z,58.50
2018-02-07T13:08:18.913Z,58.30
2018-02-07T13:10:46.574Z,58.30
2018-02-07T13:13:14.963Z,58.50
2018-02-07T13:15:42.652Z,58.40
2018-02-07T13:18:10.263Z,58.50
2018-02-07T13:20:37.942Z,58.60
2018-02-07T13:23:06.324Z,58.60
2018-02-07T13:25:33.911Z,58.50
2018-02-07T13:28:01.645Z,59.50
2018-02-07T13:30:30.135Z,59.70
2018-02-07T13:32:57.862Z,59.60
2018-02-07T13:35:25.447Z,59.60
2018-02-07T13:37:53.847Z,60.40
2018-02-07T13:40:21.465Z,59.90
2018-02-07T13:42:49.162Z,60.00
2018-02-07T13:45:18.258Z,60.20
2018-02-07T13:47:46.743Z,60.50
2018-02-07T13:50:15.451Z,60.60
2018-02-07T13:52:43.159Z,60.60
2018-02-07T13:55:10.775Z,60.90
2018-02-07T13:57:38.522Z,61.30
2018-02-07T14:00:06.118Z,61.30
2018-02-07T14:02:33.760Z,61.30
2018-02-07T14:05:01.378Z,61.10
2018-02-07T14:07:29.081Z,60.70
2018-02-07T14:09:56.667Z,60.70
2018-02-07T14:12:25.125Z,61.00
2018-02-07T14:14:52.781Z,61.00
2018-02-07T14:17:21.200Z,61.50
2018-02-07T14:19:48.923Z,61.50
2018-02-07T14:22:17.324Z,61.90
2018-02-07T14:24:44.939Z,61.90
2018-02-07T14:27:12.627Z,62.70
2018-02-07T14:29:41.111Z,62.50
2018-02-07T14:32:09.508Z,62.40
2018-02-07T14:34:37.160Z,62.40
2018-02-07T14:37:04.783Z,62.60
2018-02-07T14:39:32.423Z,62.70
2018-02-07T14:42:00.040Z,62.80
2018-02-07T14:44:28.446Z,62.50
2018-02-07T14:46:56.092Z,62.50
2018-02-07T14:49:24.566Z,62.70
2018-02-07T14:51:53.047Z,62.60
2018-02-07T14:54:21.446Z,62.50
2018-02-07T14:56:49.096Z,62.40
2018-02-07T14:59:17.507Z,62.20
2018-02-07T15:01:45.119Z,62.30
2018-02-07T15:04:12.750Z,62.00
2018-02-07T15:06:40.459Z,61.80
2018-02-07T15:09:08.938Z,61.20
2018-02-07T15:11:37.339Z,61.00
2018-02-07T15:14:04.957Z,60.90
2018-02-07T15:16:32.656Z,60.70
2018-02-07T15:19:00.268Z,60.30
2018-02-07T15:21:27.902Z,60.10
2018-02-07T15:23:55.544Z,60.10
2018-02-07T15:26:23.303Z,60.00
2018-02-07T15:28:51.701Z,60.10
2018-02-07T15:31:19.339Z,60.00
2018-02-07T15:33:47.719Z,60.00
2018-02-07T15:36:16.136Z,60.00
2018-02-07T15:38:43.751Z,59.90
2018-02-07T15:41:11.435Z,59.90
2018-02-07T15:43:39.058Z,59.80
2018-02-07T15:46:06.820Z,59.80
2018-02-07T15:48:34.435Z,59.90
2018-02-07T15:51:02.056Z,59.90
2018-02-07T15:53:29.699Z,59.90
2018-02-07T15:55:57.307Z,59.90
2018-02-07T15:58:24.951Z,60.00
2018-02-07T16:00:52.563Z,59.90
2018-02-07T16:03:20.198Z,59.80
2018-02-07T16:05:48.579Z,60.40
2018-02-07T16:08:16.218Z,60.40
2018-02-07T16:10:43.832Z,60.30
2018-02-07T16:13:11.569Z,60.50
2018-02-07T16:15:39.187Z,60.40
2018-02-07T16:18:06.873Z,60.60
2018-02-07T16:20:34.483Z,60.60
2018-02-07T16:23:02.126Z,60.60
2018-02-07T16:25:29.740Z,60.60
2018-02-07T16:27:57.367Z,60.60
2018-02-07T16:30:24.974Z,60.60
2018-02-07T16:32:52.602Z,60.70
2018-02-07T16:35:20.331Z,60.70
2018-02-07T16:37:48.806Z,60.80
2018-02-07T16:40:17.602Z,60.80
2018-02-07T16:42:46.079Z,60.70
2018-02-07T16:45:14.478Z,60.70
2018-02-07T16:47:42.117Z,60.70
2018-02-07T16:50:10.520Z,60.60
2018-02-07T16:52:38.168Z,60.60
2018-02-07T16:55:06.653Z,60.40
2018-02-07T16:57:34.262Z,60.40
2018-02-07T17:00:01.903Z,60.30
2018-02-07T17:02:29.535Z,60.30
2018-02-07T17:04:57.932Z,60.30
2018-02-07T17:07:25.541Z,60.10
2018-02-07T17:09:53.172Z,60.20
2018-02-07T17:12:20.785Z,60.20
2018-02-07T17:14:48.475Z,60.30
2018-02-07T17:17:16.131Z,60.30
2018-02-07T17:19:44.539Z,60.20
2018-02-07T17:22:12.155Z,60.30
2018-02-07T17:24:39.796Z,60.40
2018-02-07T17:27:07.495Z,60.40
2018-02-07T17:29:35.876Z,60.50
2018-02-07T17:32:04.434Z,60.60
2018-02-07T17:34:32.016Z,60.40
2018-02-07T17:37:00.491Z,60.60
2018-02-07T17:39:28.883Z,60.00
2018-02-07T17:41:57.290Z,60.50
2018-02-07T17:44:24.927Z,60.50
2018-02-07T17:46:53.336Z,60.50
2018-02-07T17:49:20.952Z,60.40
2018-02-07T17:51:48.631Z,60.50
2018-02-07T17:54:17.011Z,60.70
2018-02-07T17:56:45.455Z,60.70
2018-02-07T17:59:13.164Z,60.60
2018-02-07T18:01:41.639Z,60.70
2018-02-07T18:04:10.028Z,60.60
2018-02-07T18:06:37.786Z,60.50
2018-02-07T18:09:06.272Z,60.50
2018-02-07T18:11:34.703Z,60.60
2018-02-07T18:14:02.419Z,60.50
2018-02-07T18:16:30.797Z,60.70
2018-02-07T18:18:59.280Z,60.80
2018-02-07T18:21:27.758Z,60.80
2018-02-07T18:23:56.187Z,60.90
2018-02-07T18:26:23.802Z,60.80
2018-02-07T18:28:51.469Z,60.90
2018-02-07T18:31:19.867Z,60.90
2018-02-07T18:33:47.506Z,60.90
2018-02-07T18:36:15.882Z,61.00
2018-02-07T18:38:44.366Z,61.10
2018-02-07T18:41:13.639Z,61.20
2018-02-07T18:43:41.339Z,61.10
2018-02-07T18:46:09.718Z,61.10
2018-02-07T18:48:38.200Z,61.10
2018-02-07T18:51:06.680Z,61.10
2018-02-07T18:53:35.156Z,61.20
2018-02-07T18:56:03.535Z,61.30
2018-02-07T18:58:31.972Z,61.30
2018-02-07T19:01:00.288Z,61.30
2018-02-07T19:03:28.778Z,61.40
2018-02-07T19:05:57.160Z,61.40
2018-02-07T19:08:25.571Z,61.50
2018-02-07T19:10:53.191Z,61.40
2018-02-07T19:13:21.695Z,62.20
2018-02-07T19:15:49.350Z,61.80
2018-02-07T19:18:17.743Z,62.10
2018-02-07T19:20:45.387Z,62.10
2018-02-07T19:23:13.762Z,62.20
2018-02-07T19:25:42.158Z,62.20
2018-02-07T19:28:10.542Z,62.10
2018-02-07T19:30:38.295Z,62.10
2018-02-07T19:33:06.674Z,62.10
2018-02-07T19:35:35.078Z,62.10
2018-02-07T19:38:02.725Z,62.10
2018-02-07T19:40:31.198Z,62.00
2018-02-07T19:42:59.583Z,62.20
2018-02-07T19:45:28.057Z,63.10
2018-02-07T19:47:56.431Z,62.50
2018-02-07T19:50:24.073Z,62.40
2018-02-07T19:52:51.764Z,62.70
2018-02-07T19:55:20.246Z,63.10
2018-02-07T19:57:48.732Z,63.00
2018-02-07T20:00:17.445Z,63.00
2018-02-07T20:02:45.064Z,62.90
2018-02-07T20:05:14.198Z,62.90
2018-02-07T20:07:41.831Z,62.80
2018-02-07T20:10:10.224Z,62.90
2018-02-07T20:12:38.698Z,63.00
2018-02-07T20:15:07.070Z,63.20
2018-02-07T20:17:34.846Z,63.10
2018-02-07T20:20:03.331Z,63.10
2018-02-07T20:22:31.735Z,62.90
2018-02-07T20:24:59.347Z,62.90
2018-02-07T20:27:26.977Z,62.90
2018-02-07T20:29:54.600Z,62.80
2018-02-07T20:32:23.080Z,62.80
2018-02-07T20:34:51.459Z,62.90
2018-02-07T20:37:19.858Z,62.90
2018-02-07T20:39:47.471Z,62.90
2018-02-07T20:42:15.120Z,62.90
2018-02-07T20:44:42.742Z,63.10
2018-02-07T20:47:10.375Z,63.20
2018-02-07T20:49:38.047Z,63.10
2018-02-07T20:52:06.450Z,63.30
2018-02-07T20:54:34.062Z,63.30
2018-02-07T20:57:01.691Z,63.30
2018-02-07T20:59:29.302Z,63.20
2018-02-07T21:01:56.926Z,63.30
2018-02-07T21:04:24.563Z,63.40
2018-02-07T21:06:52.175Z,63.30
2018-02-07T21:09:19.815Z,63.50
2018-02-07T21:11:47.427Z,63.50
2018-02-07T21:14:15.084Z,63.60
2018-02-07T21:16:43.472Z,63.60
2018-02-07T21:19:11.951Z,63.70
2018-02-07T21:21:40.372Z,63.80
2018-02-07T21:24:07.998Z,63.70
2018-02-07T21:26:36.474Z,63.60
2018-02-07T21:29:04.870Z,63.70
2018-02-07T21:31:32.486Z,63.60
2018-02-07T21:34:01.528Z,63.50
2018-02-07T21:36:29.147Z,63.50
2018-02-07T21:38:56.894Z,63.60
2018-02-07T21:41:24.483Z,63.70
2018-02-07T21:43:52.139Z,63.70
2018-02-07T21:46:20.528Z,64.00
2018-02-07T21:48:48.202Z,64.00
2018-02-07T21:51:16.692Z,64.10
2018-02-07T21:53:45.171Z,64.10
2018-02-07T21:56:13.580Z,64.10
2018-02-07T21:58:41.224Z,64.10
2018-02-07T22:01:08.867Z,64.10
2018-02-07T22:03:37.246Z,64.00
2018-02-07T22:06:05.646Z,63.90
2018-02-07T22:08:33.264Z,63.90
2018-02-07T22:11:00.895Z,64.00
2018-02-07T22:13:28.522Z,64.30
2018-02-07T22:15:56.923Z,64.50
2018-02-07T22:18:24.535Z,64.40
2018-02-07T22:20:52.227Z,64.50
2018-02-07T22:23:20.603Z,64.70
2018-02-07T22:25:49.007Z,64.60
2018-02-07T22:28:16.646Z,64.60
2018-02-07T22:30:45.131Z,65.00
2018-02-07T22:33:13.519Z,65.10
2018-02-07T22:35:41.995Z,65.00
2018-02-07T22:38:10.375Z,65.10
2018-02-07T22:40:38.833Z,65.10
2018-02-07T22:43:06.515Z,65.10
2018-02-07T22:45:34.903Z,65.20
2018-02-07T22:48:03.363Z,65.20
2018-02-07T22:50:30.980Z,65.20
2018-02-07T22:52:58.624Z,66.10
2018-02-07T22:55:26.267Z,65.40
2018-02-07T22:57:54.666Z,65.30
2018-02-07T23:00:22.278Z,65.30
2018-02-07T23:02:49.970Z,65.20
2018-02-07T23:05:18.460Z,65.40
2018-02-07T23:07:46.863Z,65.60
2018-02-07T23:10:14.501Z,65.60
2018-02-07T23:12:42.975Z,65.60
2018-02-07T23:15:11.347Z,65.60
2018-02-07T23:17:39.018Z,65.40
2018-02-07T23:20:07.395Z,65.50
2018-02-07T23:22:35.891Z,65.50
2018-02-07T23:25:04.363Z,65.50
2018-02-07T23:27:32.848Z,65.60
2018-02-07T23:30:01.228Z,65.50
2018-02-07T23:32:29.631Z,65.60
2018-02-07T23:34:57.270Z,65.60
2018-02-07T23:37:25.656Z,65.80
2018-02-07T23:39:54.136Z,65.80
2018-02-07T23:42:22.506Z,65.80
2018-02-07T23:44:50.911Z,66.00
2018-02-07T23:47:18.551Z,65.90
2018-02-07T23:49:47.036Z,66.30
2018-02-07T23:52:15.423Z,66.70
2018-02-07T23:54:43.831Z,67.00
2018-02-07T23:57:11.459Z,67.00
2018-02-07T23:59:39.876Z,67.50
